Fleming, Ohio
Current Conditions -  °F | °C
As of 6:53 AM on Friday 19 Dec 2014 (Local Time) from KPKB Reporting Station
Overcast Overcast  
Wind Chill: 28°   Ceiling: 2300
Heat Index: 28°   Visibility: 8mi
Dew Point: 22°   Wind: 0mph
Humidity: 78%   Direction: NA
Pressure: 30.27"   Gusts: NA
Location:  39.39°N, 81.61°W
Report Text: KPKB 191153Z AUTO 00000KT 8SM OVC023 M02/M06 A3027 RMK AO2 SLP258 T10221056 11017 21022 53010
Loading
Personal Weather Stations






























Interactive Weather Map New forecast layout! Learn more

10-Day Weather Forecast

Advertisements
Track Severe Weather on mobile